Terminal Aerodrome Forecast
Issued by NWS Charleston, WV

Current Version | Previous Version | Graphics & Text | Print | Product List | Glossary On
Versions: 1 2 3 4 5 6 7 8 9 10 11 12 13 14 15 16 17 18 19 20 21 22 23 24 25 26 27 28
646
FTUS41 KRLX 211408 AAA
TAFPKB
TAF AMD
KPKB 211408Z 2114/2212 VRB03KT 4SM BR BKN050
     FM211500 24004KT P6SM VCTS BKN050CB
      TEMPO 2116/2117 34011G26KT 6SM TSRA
     FM220000 00000KT P6SM BKN100
     FM220300 00000KT P6SM SCT100=

USA.gov is the U.S. government's official web portal to all federal, state and local government web resources and services.